Terminal Aerodrome Forecast
Issued by NWS Amarillo, TX

Home | Current Version | Previous Version | Text Only | Print | Product List | Glossary On
Versions: 1 2 3 4 5 6 7 8 9 10 11 12 13 14 15 16 17 18 19 20 21
000
FTUS44 KAMA 281400 AAB
TAFAMA
TAF AMD
KAMA 281429Z 2814/2912 09011KT P6SM SCT025 SCT250
      TEMPO 2814/2817 BKN015
     FM282000 18017G25KT 5SM TSRA BR OVC030CB
     FM290200 17014KT P6SM OVC250=

USA.gov is the U.S. government's official web portal to all federal, state and local government web resources and services.